sensor_id;sensor_type;location;lat;lon;timestamp;P1;durP1;ratioP1;P2;durP2;ratioP2
75616;SDS011;64200;55.426;37.758;2022-11-13T00:02:46;0.10;;;0.00;;
75616;SDS011;64200;55.426;37.758;2022-11-13T00:07:47;0.70;;;0.17;;
75616;SDS011;64200;55.426;37.758;2022-11-13T00:12:48;0.45;;;0.10;;
75616;SDS011;64200;55.426;37.758;2022-11-13T00:17:48;1.70;;;0.43;;
75616;SDS011;64200;55.426;37.758;2022-11-13T00:22:49;1.88;;;0.13;;
75616;SDS011;64200;55.426;37.758;2022-11-13T00:27:49;0.80;;;0.55;;
75616;SDS011;64200;55.426;37.758;2022-11-13T00:32:50;2.53;;;0.35;;
75616;SDS011;64200;55.426;37.758;2022-11-13T00:37:51;0.20;;;0.10;;
75616;SDS011;64200;55.426;37.758;2022-11-13T00:42:51;1.63;;;0.30;;
75616;SDS011;64200;55.426;37.758;2022-11-13T00:47:52;0.93;;;0.40;;
75616;SDS011;64200;55.426;37.758;2022-11-13T00:52:52;0.55;;;0.20;;
75616;SDS011;64200;55.426;37.758;2022-11-13T00:57:53;2.25;;;0.20;;
75616;SDS011;64200;55.426;37.758;2022-11-13T01:02:54;1.60;;;0.20;;
75616;SDS011;64200;55.426;37.758;2022-11-13T01:07:54;1.60;;;0.10;;
75616;SDS011;64200;55.426;37.758;2022-11-13T01:12:55;1.92;;;0.35;;
75616;SDS011;64200;55.426;37.758;2022-11-13T01:17:56;0.82;;;0.20;;
75616;SDS011;64200;55.426;37.758;2022-11-13T01:22:56;0.57;;;0.10;;
75616;SDS011;64200;55.426;37.758;2022-11-13T01:27:57;2.95;;;0.40;;
75616;SDS011;64200;55.426;37.758;2022-11-13T01:32:58;1.33;;;0.25;;
75616;SDS011;64200;55.426;37.758;2022-11-13T01:37:58;2.33;;;0.43;;
75616;SDS011;64200;55.426;37.758;2022-11-13T01:43:08;0.52;;;0.20;;
75616;SDS011;64200;55.426;37.758;2022-11-13T01:48:19;2.92;;;0.10;;
75616;SDS011;64200;55.426;37.758;2022-11-13T01:53:20;1.45;;;0.30;;
75616;SDS011;64200;55.426;37.758;2022-11-13T01:58:21;0.70;;;0.20;;
75616;SDS011;64200;55.426;37.758;2022-11-13T02:03:22;0.63;;;0.20;;
75616;SDS011;64200;55.426;37.758;2022-11-13T02:08:23;1.20;;;0.20;;
75616;SDS011;64200;55.426;37.758;2022-11-13T02:13:23;1.60;;;0.28;;
75616;SDS011;64200;55.426;37.758;2022-11-13T02:18:25;1.02;;;0.20;;
75616;SDS011;64200;55.426;37.758;2022-11-13T02:28:38;2.05;;;0.40;;
75616;SDS011;64200;55.426;37.758;2022-11-13T02:33:39;3.50;;;0.17;;
75616;SDS011;64200;55.426;37.758;2022-11-13T02:38:40;0.08;;;0.00;;
75616;SDS011;64200;55.426;37.758;2022-11-13T02:43:42;2.10;;;0.10;;
75616;SDS011;64200;55.426;37.758;2022-11-13T02:48:43;1.00;;;0.20;;
75616;SDS011;64200;55.426;37.758;2022-11-13T02:53:43;0.08;;;0.05;;
75616;SDS011;64200;55.426;37.758;2022-11-13T02:58:44;2.10;;;0.20;;
75616;SDS011;64200;55.426;37.758;2022-11-13T03:03:44;0.65;;;0.38;;
75616;SDS011;64200;55.426;37.758;2022-11-13T03:08:45;0.70;;;0.00;;
75616;SDS011;64200;55.426;37.758;2022-11-13T03:13:46;0.30;;;0.10;;
75616;SDS011;64200;55.426;37.758;2022-11-13T03:18:46;0.30;;;0.10;;
75616;SDS011;64200;55.426;37.758;2022-11-13T03:23:47;0.55;;;0.20;;
75616;SDS011;64200;55.426;37.758;2022-11-13T03:28:47;0.30;;;0.10;;
75616;SDS011;64200;55.426;37.758;2022-11-13T03:33:50;1.05;;;0.25;;
75616;SDS011;64200;55.426;37.758;2022-11-13T03:38:52;0.52;;;0.30;;
75616;SDS011;64200;55.426;37.758;2022-11-13T03:43:53;1.23;;;0.10;;
75616;SDS011;64200;55.426;37.758;2022-11-13T03:48:53;0.43;;;0.20;;
75616;SDS011;64200;55.426;37.758;2022-11-13T03:53:54;1.92;;;0.30;;
75616;SDS011;64200;55.426;37.758;2022-11-13T03:58:54;0.38;;;0.05;;
75616;SDS011;64200;55.426;37.758;2022-11-13T04:03:55;0.17;;;0.10;;
75616;SDS011;64200;55.426;37.758;2022-11-13T04:08:56;1.92;;;0.25;;
75616;SDS011;64200;55.426;37.758;2022-11-13T04:13:56;0.95;;;0.30;;
75616;SDS011;64200;55.426;37.758;2022-11-13T04:18:57;1.00;;;0.10;;
75616;SDS011;64200;55.426;37.758;2022-11-13T04:23:57;2.17;;;0.60;;
75616;SDS011;64200;55.426;37.758;2022-11-13T04:28:58;0.65;;;0.13;;
75616;SDS011;64200;55.426;37.758;2022-11-13T04:33:58;2.70;;;0.20;;
75616;SDS011;64200;55.426;37.758;2022-11-13T04:39:00;0.57;;;0.20;;
75616;SDS011;64200;55.426;37.758;2022-11-13T04:44:00;1.00;;;0.30;;
75616;SDS011;64200;55.426;37.758;2022-11-13T04:49:01;1.75;;;0.40;;
75616;SDS011;64200;55.426;37.758;2022-11-13T04:54:01;1.10;;;0.20;;
75616;SDS011;64200;55.426;37.758;2022-11-13T04:59:02;1.88;;;0.40;;
75616;SDS011;64200;55.426;37.758;2022-11-13T05:04:03;0.47;;;0.20;;
75616;SDS011;64200;55.426;37.758;2022-11-13T05:09:04;2.22;;;0.32;;
75616;SDS011;64200;55.426;37.758;2022-11-13T05:14:04;0.22;;;0.15;;
75616;SDS011;64200;55.426;37.758;2022-11-13T05:19:05;1.73;;;0.20;;
75616;SDS011;64200;55.426;37.758;2022-11-13T05:24:08;0.25;;;0.15;;
75616;SDS011;64200;55.426;37.758;2022-11-13T05:29:09;1.60;;;0.20;;
75616;SDS011;64200;55.426;37.758;2022-11-13T05:34:10;0.88;;;0.60;;
75616;SDS011;64200;55.426;37.758;2022-11-13T05:39:11;4.15;;;0.20;;
75616;SDS011;64200;55.426;37.758;2022-11-13T05:44:11;3.45;;;0.20;;
75616;SDS011;64200;55.426;37.758;2022-11-13T05:49:12;1.98;;;0.20;;
75616;SDS011;64200;55.426;37.758;2022-11-13T05:54:12;0.70;;;0.30;;
75616;SDS011;64200;55.426;37.758;2022-11-13T05:59:13;2.65;;;0.50;;
75616;SDS011;64200;55.426;37.758;2022-11-13T06:04:14;0.38;;;0.10;;
75616;SDS011;64200;55.426;37.758;2022-11-13T06:09:14;1.13;;;0.30;;
75616;SDS011;64200;55.426;37.758;2022-11-13T06:14:16;2.08;;;0.43;;
75616;SDS011;64200;55.426;37.758;2022-11-13T06:19:17;0.60;;;0.20;;
75616;SDS011;64200;55.426;37.758;2022-11-13T06:24:17;2.42;;;0.70;;
75616;SDS011;64200;55.426;37.758;2022-11-13T06:29:18;1.33;;;0.47;;
75616;SDS011;64200;55.426;37.758;2022-11-13T06:34:19;1.38;;;0.63;;
75616;SDS011;64200;55.426;37.758;2022-11-13T06:39:19;0.75;;;0.30;;
75616;SDS011;64200;55.426;37.758;2022-11-13T06:44:20;1.00;;;0.25;;
75616;SDS011;64200;55.426;37.758;2022-11-13T06:49:20;0.88;;;0.40;;
75616;SDS011;64200;55.426;37.758;2022-11-13T06:54:21;0.60;;;0.30;;
75616;SDS011;64200;55.426;37.758;2022-11-13T06:59:22;4.63;;;4.32;;
75616;SDS011;64200;55.426;37.758;2022-11-13T07:04:22;7.82;;;7.35;;
75616;SDS011;64200;55.426;37.758;2022-11-13T07:09:23;6.70;;;6.20;;
75616;SDS011;64200;55.426;37.758;2022-11-13T07:14:23;1.30;;;0.65;;
75616;SDS011;64200;55.426;37.758;2022-11-13T07:19:24;1.20;;;0.47;;
75616;SDS011;64200;55.426;37.758;2022-11-13T07:24:25;3.42;;;3.33;;
75616;SDS011;64200;55.426;37.758;2022-11-13T07:29:25;2.70;;;2.60;;
75616;SDS011;64200;55.426;37.758;2022-11-13T07:34:26;0.98;;;0.60;;
75616;SDS011;64200;55.426;37.758;2022-11-13T07:39:26;0.95;;;0.40;;
75616;SDS011;64200;55.426;37.758;2022-11-13T07:44:27;0.40;;;0.30;;
75616;SDS011;64200;55.426;37.758;2022-11-13T07:49:28;0.30;;;0.30;;
75616;SDS011;64200;55.426;37.758;2022-11-13T07:54:28;0.15;;;0.10;;
75616;SDS011;64200;55.426;37.758;2022-11-13T07:59:29;0.20;;;0.20;;
75616;SDS011;64200;55.426;37.758;2022-11-13T08:04:29;1.17;;;0.30;;
75616;SDS011;64200;55.426;37.758;2022-11-13T08:09:30;0.98;;;0.98;;
75616;SDS011;64200;55.426;37.758;2022-11-13T08:14:31;1.65;;;0.75;;
75616;SDS011;64200;55.426;37.758;2022-11-13T08:19:31;0.52;;;0.20;;
75616;SDS011;64200;55.426;37.758;2022-11-13T08:24:32;0.82;;;0.50;;
75616;SDS011;64200;55.426;37.758;2022-11-13T08:29:32;1.98;;;0.20;;
75616;SDS011;64200;55.426;37.758;2022-11-13T08:34:36;0.90;;;0.70;;
75616;SDS011;64200;55.426;37.758;2022-11-13T08:39:36;0.40;;;0.20;;
75616;SDS011;64200;55.426;37.758;2022-11-13T08:44:37;0.60;;;0.35;;
75616;SDS011;64200;55.426;37.758;2022-11-13T08:49:38;0.57;;;0.28;;
75616;SDS011;64200;55.426;37.758;2022-11-13T08:54:38;0.45;;;0.30;;
75616;SDS011;64200;55.426;37.758;2022-11-13T08:59:39;0.52;;;0.30;;
75616;SDS011;64200;55.426;37.758;2022-11-13T09:04:40;1.05;;;0.20;;
75616;SDS011;64200;55.426;37.758;2022-11-13T09:09:41;1.38;;;0.30;;
75616;SDS011;64200;55.426;37.758;2022-11-13T09:14:42;0.85;;;0.28;;
75616;SDS011;64200;55.426;37.758;2022-11-13T09:19:42;0.43;;;0.20;;
75616;SDS011;64200;55.426;37.758;2022-11-13T09:24:43;3.75;;;0.75;;
75616;SDS011;64200;55.426;37.758;2022-11-13T09:29:44;1.70;;;0.90;;
75616;SDS011;64200;55.426;37.758;2022-11-13T09:34:44;1.08;;;0.45;;
75616;SDS011;64200;55.426;37.758;2022-11-13T09:39:45;2.63;;;1.00;;
75616;SDS011;64200;55.426;37.758;2022-11-13T09:44:50;1.35;;;0.55;;
75616;SDS011;64200;55.426;37.758;2022-11-13T09:49:57;1.35;;;0.52;;
75616;SDS011;64200;55.426;37.758;2022-11-13T09:55:02;2.53;;;0.45;;
75616;SDS011;64200;55.426;37.758;2022-11-13T10:00:05;1.75;;;0.47;;
75616;SDS011;64200;55.426;37.758;2022-11-13T10:10:55;1.92;;;0.70;;
75616;SDS011;64200;55.426;37.758;2022-11-13T10:16:08;2.25;;;0.47;;
75616;SDS011;64200;55.426;37.758;2022-11-13T10:21:16;0.70;;;0.20;;
75616;SDS011;64200;55.426;37.758;2022-11-13T10:26:26;2.05;;;0.60;;
75616;SDS011;64200;55.426;37.758;2022-11-13T10:31:28;0.88;;;0.63;;
75616;SDS011;64200;55.426;37.758;2022-11-13T10:42:17;0.32;;;0.10;;
75616;SDS011;64200;55.426;37.758;2022-11-13T10:47:32;3.42;;;1.55;;
75616;SDS011;64200;55.426;37.758;2022-11-13T10:52:32;6.05;;;2.88;;
75616;SDS011;64200;55.426;37.758;2022-11-13T10:57:34;0.82;;;0.38;;
75616;SDS011;64200;55.426;37.758;2022-11-13T11:02:34;1.52;;;0.10;;
75616;SDS011;64200;55.426;37.758;2022-11-13T11:07:38;0.50;;;0.30;;
75616;SDS011;64200;55.426;37.758;2022-11-13T11:12:40;0.70;;;0.30;;
75616;SDS011;64200;55.426;37.758;2022-11-13T11:17:45;1.00;;;0.40;;
75616;SDS011;64200;55.426;37.758;2022-11-13T11:23:01;7.68;;;1.75;;
75616;SDS011;64200;55.426;37.758;2022-11-13T11:28:34;5.10;;;0.70;;
75616;SDS011;64200;55.426;37.758;2022-11-13T11:38:54;1.80;;;0.90;;
75616;SDS011;64200;55.426;37.758;2022-11-13T11:44:22;2.53;;;1.95;;
75616;SDS011;64200;55.426;37.758;2022-11-13T11:49:30;3.17;;;1.20;;
75616;SDS011;64200;55.426;37.758;2022-11-13T11:54:41;4.88;;;0.73;;
75616;SDS011;64200;55.426;37.758;2022-11-13T12:20:50;1.67;;;0.68;;
75616;SDS011;64200;55.426;37.758;2022-11-13T12:36:38;3.75;;;0.88;;
75616;SDS011;64200;55.426;37.758;2022-11-13T12:41:41;4.43;;;0.60;;
75616;SDS011;64200;55.426;37.758;2022-11-13T12:46:52;5.15;;;0.90;;
75616;SDS011;64200;55.426;37.758;2022-11-13T13:07:31;2.97;;;0.30;;
75616;SDS011;64200;55.426;37.758;2022-11-13T13:18:10;1.42;;;0.70;;
75616;SDS011;64200;55.426;37.758;2022-11-13T13:23:24;3.35;;;0.77;;
75616;SDS011;64200;55.426;37.758;2022-11-13T13:28:27;4.03;;;0.75;;
75616;SDS011;64200;55.426;37.758;2022-11-13T13:44:03;0.47;;;0.40;;
75616;SDS011;64200;55.426;37.758;2022-11-13T13:49:29;3.00;;;0.45;;
75616;SDS011;64200;55.426;37.758;2022-11-13T13:54:30;5.68;;;1.10;;
75616;SDS011;64200;55.426;37.758;2022-11-13T13:59:34;2.20;;;0.60;;
75616;SDS011;64200;55.426;37.758;2022-11-13T14:04:41;3.25;;;0.80;;
75616;SDS011;64200;55.426;37.758;2022-11-13T14:10:02;2.88;;;0.82;;
75616;SDS011;64200;55.426;37.758;2022-11-13T14:20:47;2.55;;;0.50;;
75616;SDS011;64200;55.426;37.758;2022-11-13T14:25:51;2.70;;;0.60;;
75616;SDS011;64200;55.426;37.758;2022-11-13T14:31:01;1.15;;;0.40;;
75616;SDS011;64200;55.426;37.758;2022-11-13T14:36:06;0.75;;;0.45;;
75616;SDS011;64200;55.426;37.758;2022-11-13T14:46:34;1.02;;;0.40;;
75616;SDS011;64200;55.426;37.758;2022-11-13T14:51:36;4.78;;;0.63;;
75616;SDS011;64200;55.426;37.758;2022-11-13T14:56:39;2.17;;;0.98;;
75616;SDS011;64200;55.426;37.758;2022-11-13T15:01:52;1.52;;;0.50;;
75616;SDS011;64200;55.426;37.758;2022-11-13T15:06:58;3.53;;;0.93;;
75616;SDS011;64200;55.426;37.758;2022-11-13T15:12:00;6.10;;;0.75;;
75616;SDS011;64200;55.426;37.758;2022-11-13T15:17:00;2.70;;;0.50;;
75616;SDS011;64200;55.426;37.758;2022-11-13T15:22:01;1.17;;;0.40;;
75616;SDS011;64200;55.426;37.758;2022-11-13T15:27:02;2.42;;;0.65;;
75616;SDS011;64200;55.426;37.758;2022-11-13T15:32:03;1.40;;;0.50;;
75616;SDS011;64200;55.426;37.758;2022-11-13T15:37:11;0.75;;;0.40;;
75616;SDS011;64200;55.426;37.758;2022-11-13T15:42:14;2.03;;;0.40;;
75616;SDS011;64200;55.426;37.758;2022-11-13T15:47:20;1.02;;;0.50;;
75616;SDS011;64200;55.426;37.758;2022-11-13T15:52:44;5.35;;;1.40;;
75616;SDS011;64200;55.426;37.758;2022-11-13T15:57:47;3.95;;;0.60;;
75616;SDS011;64200;55.426;37.758;2022-11-13T16:02:48;1.10;;;0.28;;
75616;SDS011;64200;55.426;37.758;2022-11-13T16:07:52;1.10;;;0.60;;
75616;SDS011;64200;55.426;37.758;2022-11-13T16:12:53;1.30;;;0.45;;
75616;SDS011;64200;55.426;37.758;2022-11-13T16:17:54;4.50;;;0.55;;
75616;SDS011;64200;55.426;37.758;2022-11-13T16:22:57;1.55;;;0.38;;
75616;SDS011;64200;55.426;37.758;2022-11-13T16:27:57;1.52;;;0.65;;
75616;SDS011;64200;55.426;37.758;2022-11-13T16:32:58;1.40;;;0.40;;
75616;SDS011;64200;55.426;37.758;2022-11-13T16:37:59;1.45;;;0.50;;
75616;SDS011;64200;55.426;37.758;2022-11-13T16:42:59;1.33;;;0.35;;
75616;SDS011;64200;55.426;37.758;2022-11-13T16:48:00;1.27;;;0.40;;
75616;SDS011;64200;55.426;37.758;2022-11-13T16:53:01;1.50;;;0.50;;
75616;SDS011;64200;55.426;37.758;2022-11-13T16:58:02;2.65;;;0.70;;
75616;SDS011;64200;55.426;37.758;2022-11-13T17:03:04;3.65;;;0.90;;
75616;SDS011;64200;55.426;37.758;2022-11-13T17:08:04;1.17;;;0.50;;
75616;SDS011;64200;55.426;37.758;2022-11-13T17:13:05;0.85;;;0.50;;
75616;SDS011;64200;55.426;37.758;2022-11-13T17:18:06;0.98;;;0.43;;
75616;SDS011;64200;55.426;37.758;2022-11-13T17:23:12;1.60;;;0.50;;
75616;SDS011;64200;55.426;37.758;2022-11-13T17:28:15;0.70;;;0.32;;
75616;SDS011;64200;55.426;37.758;2022-11-13T17:33:15;2.05;;;0.30;;
75616;SDS011;64200;55.426;37.758;2022-11-13T17:38:16;2.05;;;0.73;;
75616;SDS011;64200;55.426;37.758;2022-11-13T17:43:17;4.45;;;1.85;;
75616;SDS011;64200;55.426;37.758;2022-11-13T17:48:18;5.32;;;0.80;;
75616;SDS011;64200;55.426;37.758;2022-11-13T17:53:19;0.70;;;0.40;;
75616;SDS011;64200;55.426;37.758;2022-11-13T17:58:20;0.75;;;0.45;;
75616;SDS011;64200;55.426;37.758;2022-11-13T18:03:20;0.90;;;0.40;;
75616;SDS011;64200;55.426;37.758;2022-11-13T18:08:21;1.42;;;0.75;;
75616;SDS011;64200;55.426;37.758;2022-11-13T18:13:21;0.50;;;0.30;;
75616;SDS011;64200;55.426;37.758;2022-11-13T18:18:22;2.30;;;0.40;;
75616;SDS011;64200;55.426;37.758;2022-11-13T18:23:23;1.88;;;0.90;;
75616;SDS011;64200;55.426;37.758;2022-11-13T18:28:24;1.77;;;0.60;;
75616;SDS011;64200;55.426;37.758;2022-11-13T18:33:25;1.88;;;0.47;;
75616;SDS011;64200;55.426;37.758;2022-11-13T18:38:26;1.42;;;0.80;;
75616;SDS011;64200;55.426;37.758;2022-11-13T18:43:27;2.50;;;0.50;;
75616;SDS011;64200;55.426;37.758;2022-11-13T18:48:29;0.95;;;0.57;;
75616;SDS011;64200;55.426;37.758;2022-11-13T18:53:30;0.75;;;0.40;;
75616;SDS011;64200;55.426;37.758;2022-11-13T18:58:34;1.02;;;0.40;;
75616;SDS011;64200;55.426;37.758;2022-11-13T19:03:36;0.75;;;0.40;;
75616;SDS011;64200;55.426;37.758;2022-11-13T19:08:37;0.90;;;0.32;;
75616;SDS011;64200;55.426;37.758;2022-11-13T19:13:40;2.08;;;0.63;;
75616;SDS011;64200;55.426;37.758;2022-11-13T19:18:42;1.90;;;0.85;;
75616;SDS011;64200;55.426;37.758;2022-11-13T19:23:48;0.57;;;0.40;;
75616;SDS011;64200;55.426;37.758;2022-11-13T19:28:49;1.08;;;0.60;;
75616;SDS011;64200;55.426;37.758;2022-11-13T19:33:54;1.50;;;0.50;;
75616;SDS011;64200;55.426;37.758;2022-11-13T19:38:59;1.75;;;0.70;;
75616;SDS011;64200;55.426;37.758;2022-11-13T19:44:00;2.53;;;0.50;;
75616;SDS011;64200;55.426;37.758;2022-11-13T19:49:01;1.25;;;0.70;;
75616;SDS011;64200;55.426;37.758;2022-11-13T19:54:01;3.45;;;0.70;;
75616;SDS011;64200;55.426;37.758;2022-11-13T19:59:02;1.73;;;0.77;;
75616;SDS011;64200;55.426;37.758;2022-11-13T20:04:03;1.20;;;0.40;;
75616;SDS011;64200;55.426;37.758;2022-11-13T20:09:04;1.42;;;0.70;;
75616;SDS011;64200;55.426;37.758;2022-11-13T20:14:06;1.08;;;0.70;;
75616;SDS011;64200;55.426;37.758;2022-11-13T20:19:06;1.23;;;0.60;;
75616;SDS011;64200;55.426;37.758;2022-11-13T20:24:07;2.95;;;0.60;;
75616;SDS011;64200;55.426;37.758;2022-11-13T20:29:08;1.15;;;0.60;;
75616;SDS011;64200;55.426;37.758;2022-11-13T20:34:09;1.23;;;0.85;;
75616;SDS011;64200;55.426;37.758;2022-11-13T20:39:10;2.25;;;0.63;;
75616;SDS011;64200;55.426;37.758;2022-11-13T20:44:10;3.65;;;1.00;;
75616;SDS011;64200;55.426;37.758;2022-11-13T20:49:13;0.93;;;0.50;;
75616;SDS011;64200;55.426;37.758;2022-11-13T20:54:14;2.28;;;0.63;;
75616;SDS011;64200;55.426;37.758;2022-11-13T20:59:14;3.53;;;0.70;;
75616;SDS011;64200;55.426;37.758;2022-11-13T21:04:15;1.50;;;0.63;;
75616;SDS011;64200;55.426;37.758;2022-11-13T21:09:16;1.38;;;0.45;;
75616;SDS011;64200;55.426;37.758;2022-11-13T21:14:16;0.52;;;0.40;;
75616;SDS011;64200;55.426;37.758;2022-11-13T21:19:17;0.93;;;0.45;;
75616;SDS011;64200;55.426;37.758;2022-11-13T21:24:18;0.90;;;0.50;;
75616;SDS011;64200;55.426;37.758;2022-11-13T21:29:18;1.98;;;0.98;;
75616;SDS011;64200;55.426;37.758;2022-11-13T21:34:19;1.15;;;0.60;;
75616;SDS011;64200;55.426;37.758;2022-11-13T21:39:19;0.70;;;0.47;;
75616;SDS011;64200;55.426;37.758;2022-11-13T21:44:20;0.77;;;0.43;;
75616;SDS011;64200;55.426;37.758;2022-11-13T21:49:21;1.70;;;0.30;;
75616;SDS011;64200;55.426;37.758;2022-11-13T21:54:22;1.40;;;0.47;;
75616;SDS011;64200;55.426;37.758;2022-11-13T21:59:22;2.20;;;0.50;;
75616;SDS011;64200;55.426;37.758;2022-11-13T22:04:23;1.35;;;0.65;;
75616;SDS011;64200;55.426;37.758;2022-11-13T22:09:24;0.73;;;0.43;;
75616;SDS011;64200;55.426;37.758;2022-11-13T22:14:24;4.90;;;0.60;;
75616;SDS011;64200;55.426;37.758;2022-11-13T22:19:26;1.98;;;0.50;;
75616;SDS011;64200;55.426;37.758;2022-11-13T22:24:26;0.40;;;0.25;;
75616;SDS011;64200;55.426;37.758;2022-11-13T22:29:28;0.43;;;0.20;;
75616;SDS011;64200;55.426;37.758;2022-11-13T22:34:29;0.63;;;0.30;;
75616;SDS011;64200;55.426;37.758;2022-11-13T22:39:29;0.35;;;0.10;;
75616;SDS011;64200;55.426;37.758;2022-11-13T22:44:30;1.00;;;0.10;;
75616;SDS011;64200;55.426;37.758;2022-11-13T22:49:31;0.08;;;0.08;;
75616;SDS011;64200;55.426;37.758;2022-11-13T22:54:31;0.30;;;0.20;;
75616;SDS011;64200;55.426;37.758;2022-11-13T22:59:32;0.50;;;0.20;;
75616;SDS011;64200;55.426;37.758;2022-11-13T23:04:32;1.42;;;0.20;;
75616;SDS011;64200;55.426;37.758;2022-11-13T23:09:33;0.25;;;0.10;;
75616;SDS011;64200;55.426;37.758;2022-11-13T23:14:34;0.40;;;0.20;;
75616;SDS011;64200;55.426;37.758;2022-11-13T23:19:34;0.25;;;0.10;;
75616;SDS011;64200;55.426;37.758;2022-11-13T23:24:35;0.40;;;0.15;;
75616;SDS011;64200;55.426;37.758;2022-11-13T23:29:35;1.42;;;0.22;;
75616;SDS011;64200;55.426;37.758;2022-11-13T23:34:36;0.43;;;0.10;;
75616;SDS011;64200;55.426;37.758;2022-11-13T23:39:36;0.38;;;0.10;;
75616;SDS011;64200;55.426;37.758;2022-11-13T23:44:37;0.40;;;0.15;;
75616;SDS011;64200;55.426;37.758;2022-11-13T23:49:37;0.30;;;0.15;;
75616;SDS011;64200;55.426;37.758;2022-11-13T23:54:38;0.22;;;0.13;;
75616;SDS011;64200;55.426;37.758;2022-11-13T23:59:39;0.25;;;0.17;;
